createdAt,value
2023-01-29T00:00:17.438Z,-0.74
2023-01-29T00:02:47.210Z,-0.76
2023-01-29T00:08:04.049Z,-0.73
2023-01-29T00:10:20.921Z,-0.68
2023-01-29T00:10:32.359Z,-0.78
2023-01-29T00:13:01.018Z,-0.82
2023-01-29T00:15:29.875Z,-0.85
2023-01-29T00:17:59.473Z,-0.85
2023-01-29T00:20:27.778Z,-0.83
2023-01-29T00:23:00.263Z,-0.84
2023-01-29T00:25:28.372Z,-0.86
2023-01-29T00:27:56.523Z,-0.89
2023-01-29T00:30:25.299Z,-0.90
2023-01-29T00:32:54.151Z,-0.91
2023-01-29T00:35:25.891Z,-0.92
2023-01-29T00:37:56.103Z,-0.92
2023-01-29T00:40:25.682Z,-0.91
2023-01-29T00:43:11.594Z,-0.84
2023-01-29T00:45:40.124Z,-0.88
2023-01-29T00:48:08.329Z,-0.79
2023-01-29T00:50:39.526Z,-0.79
2023-01-29T00:53:10.426Z,-0.81
2023-01-29T00:55:38.619Z,-0.81
2023-01-29T00:58:06.914Z,-0.77
2023-01-29T01:00:35.201Z,-0.79
2023-01-29T01:03:05.561Z,-0.81
2023-01-29T01:05:34.481Z,-0.56
2023-01-29T01:08:04.080Z,-0.61
2023-01-29T01:10:32.396Z,-0.73
2023-01-29T01:13:03.825Z,-0.73
2023-01-29T01:15:35.299Z,-0.71
2023-01-29T01:18:06.237Z,-0.71
2023-01-29T01:20:36.986Z,-0.78
2023-01-29T01:23:06.571Z,-0.70
2023-01-29T01:25:35.121Z,-0.75
2023-01-29T01:28:03.385Z,-0.77
2023-01-29T01:30:33.284Z,-0.77
2023-01-29T01:33:02.358Z,-0.73
2023-01-29T01:35:30.846Z,-0.72
2023-01-29T01:37:58.940Z,-0.74
2023-01-29T01:40:31.187Z,-0.48
2023-01-29T01:43:00.174Z,-0.63
2023-01-29T01:45:30.095Z,-0.71
2023-01-29T01:48:02.171Z,-0.77
2023-01-29T01:50:35.550Z,-0.79
2023-01-29T01:53:08.268Z,-0.84
2023-01-29T01:55:41.166Z,-0.83
2023-01-29T01:58:13.141Z,-0.76
2023-01-29T02:00:43.447Z,-0.83
2023-01-29T02:03:31.385Z,-0.88
2023-01-29T02:06:19.218Z,-0.84
2023-01-29T02:09:10.789Z,-0.92
2023-01-29T02:11:41.049Z,-0.97
2023-01-29T02:14:09.817Z,-1.01
2023-01-29T02:16:38.471Z,-1.02
2023-01-29T02:19:12.214Z,-1.08
2023-01-29T02:22:09.184Z,-1.15
2023-01-29T02:24:59.289Z,-1.19
2023-01-29T02:27:36.943Z,-1.24
2023-01-29T02:30:10.215Z,-1.24
2023-01-29T02:32:54.830Z,-1.29
2023-01-29T02:35:31.959Z,-1.30
2023-01-29T02:38:13.879Z,-1.30
2023-01-29T02:40:46.903Z,-1.33
2023-01-29T02:43:31.485Z,-1.39
2023-01-29T02:46:12.186Z,-1.43
2023-01-29T02:48:46.329Z,-1.47
2023-01-29T02:51:23.981Z,-1.49
2023-01-29T02:53:59.860Z,-1.43
2023-01-29T02:56:33.550Z,-1.43
2023-01-29T02:59:09.799Z,-1.44
2023-01-29T03:01:47.021Z,-1.40
2023-01-29T03:04:23.253Z,-1.49
2023-01-29T03:06:56.423Z,-1.53
2023-01-29T03:09:32.939Z,-1.55
2023-01-29T03:12:19.907Z,-1.58
2023-01-29T03:15:17.881Z,-1.56
2023-01-29T03:18:13.603Z,-1.46
2023-01-29T03:20:49.321Z,-1.40
2023-01-29T03:23:27.029Z,-1.33
2023-01-29T03:26:17.568Z,-1.31
2023-01-29T03:29:05.331Z,-1.31
2023-01-29T03:31:53.469Z,-1.31
2023-01-29T03:34:34.900Z,-1.28
2023-01-29T03:37:09.476Z,-1.21
2023-01-29T03:39:37.971Z,-1.26
2023-01-29T03:42:17.667Z,-1.30
2023-01-29T03:44:57.714Z,-1.28
2023-01-29T03:48:00.785Z,-1.31
2023-01-29T03:50:39.236Z,-1.28
2023-01-29T03:53:17.754Z,-1.27
2023-01-29T03:55:55.596Z,-1.23
2023-01-29T03:58:30.686Z,-1.27
2023-01-29T04:01:03.968Z,-1.24
2023-01-29T04:03:36.468Z,-1.26
2023-01-29T04:06:14.582Z,-1.30
2023-01-29T04:09:02.703Z,-1.26
2023-01-29T04:11:34.246Z,-1.32
2023-01-29T04:14:06.059Z,-1.33
2023-01-29T04:16:40.207Z,-1.31
2023-01-29T04:19:27.391Z,-1.33
2023-01-29T04:22:06.644Z,-1.35
2023-01-29T04:24:35.896Z,-1.38
2023-01-29T04:27:18.136Z,-1.37
2023-01-29T04:30:02.898Z,-1.39
2023-01-29T04:32:48.042Z,-1.41
2023-01-29T04:35:27.477Z,-1.42
2023-01-29T04:38:02.775Z,-1.45
2023-01-29T04:40:40.402Z,-1.50
2023-01-29T04:43:15.089Z,-1.54
2023-01-29T04:45:57.685Z,-1.54
2023-01-29T04:48:29.643Z,-1.58
2023-01-29T04:51:02.417Z,-1.63
2023-01-29T04:53:39.001Z,-1.69
2023-01-29T04:56:13.383Z,-1.74
2023-01-29T04:58:48.338Z,-1.77
2023-01-29T05:01:19.414Z,-1.74
2023-01-29T05:03:50.657Z,-1.79
2023-01-29T05:06:21.969Z,-1.85
2023-01-29T05:08:52.939Z,-1.87
2023-01-29T05:11:21.837Z,-1.87
2023-01-29T05:13:50.517Z,-1.88
2023-01-29T05:16:23.625Z,-1.89
2023-01-29T05:18:52.328Z,-1.90
2023-01-29T05:21:23.118Z,-1.91
2023-01-29T05:24:15.342Z,-1.87
2023-01-29T05:27:01.734Z,-1.84
2023-01-29T05:29:30.074Z,-1.79
2023-01-29T05:31:58.385Z,-1.70
2023-01-29T05:34:29.532Z,-1.67
2023-01-29T05:36:58.670Z,-1.66
2023-01-29T05:39:28.466Z,-1.65
2023-01-29T05:41:56.619Z,-1.68
2023-01-29T05:44:24.663Z,-1.68
2023-01-29T05:46:53.084Z,-1.64
2023-01-29T05:49:22.767Z,-1.63
2023-01-29T05:51:51.532Z,-1.61
2023-01-29T05:54:20.007Z,-1.66
2023-01-29T05:56:49.546Z,-1.68
2023-01-29T05:59:20.187Z,-1.71
2023-01-29T06:01:50.832Z,-1.72
2023-01-29T06:04:20.702Z,-1.73
2023-01-29T06:06:49.241Z,-1.71
2023-01-29T06:09:17.379Z,-1.70
2023-01-29T06:11:45.562Z,-1.71
2023-01-29T06:14:15.141Z,-1.74
2023-01-29T06:16:43.633Z,-1.80
2023-01-29T06:19:14.566Z,-1.83
2023-01-29T06:21:45.139Z,-1.85
2023-01-29T06:24:13.624Z,-1.88
2023-01-29T06:26:41.994Z,-1.89
2023-01-29T06:29:10.157Z,-1.89
2023-01-29T06:31:41.300Z,-1.87
2023-01-29T06:34:11.078Z,-1.89
2023-01-29T06:36:39.988Z,-1.89
2023-01-29T06:39:08.339Z,-1.91
2023-01-29T06:41:36.750Z,-1.92
2023-01-29T06:44:04.922Z,-1.93
2023-01-29T06:46:33.395Z,-1.92
2023-01-29T06:49:03.330Z,-1.91
2023-01-29T06:51:31.908Z,-1.91
2023-01-29T06:54:00.200Z,-1.89
2023-01-29T06:56:29.372Z,-1.88
2023-01-29T06:58:57.592Z,-1.86
2023-01-29T07:01:35.632Z,-1.86
2023-01-29T07:04:06.624Z,-1.87
2023-01-29T07:06:35.307Z,-1.90
2023-01-29T07:09:04.079Z,-1.91
2023-01-29T07:11:32.637Z,-1.93
2023-01-29T07:14:01.329Z,-1.89
2023-01-29T07:16:29.755Z,-1.85
2023-01-29T07:18:58.065Z,-1.83
2023-01-29T07:21:28.149Z,-1.82
2023-01-29T07:23:56.293Z,-1.81
2023-01-29T07:26:24.911Z,-1.78
2023-01-29T07:28:54.489Z,-1.75
2023-01-29T07:31:22.908Z,-1.71
2023-01-29T07:33:51.571Z,-1.69
2023-01-29T07:36:19.866Z,-1.68
2023-01-29T07:38:51.916Z,-1.68
2023-01-29T07:41:20.566Z,-1.62
2023-01-29T07:43:49.104Z,-1.61
2023-01-29T07:46:17.574Z,-1.60
2023-01-29T07:48:46.749Z,-1.58
2023-01-29T07:51:18.104Z,-1.56
2023-01-29T07:53:47.149Z,-1.53
2023-01-29T07:56:16.790Z,-1.46
2023-01-29T07:58:44.933Z,-1.43
2023-01-29T08:01:14.741Z,-1.36
2023-01-29T08:03:44.440Z,-1.30
2023-01-29T08:06:12.751Z,-1.24
2023-01-29T08:08:41.102Z,-1.20
2023-01-29T08:11:09.864Z,-1.11
2023-01-29T08:13:39.375Z,-1.00
2023-01-29T08:16:08.448Z,-0.93
2023-01-29T08:18:38.437Z,-0.80
2023-01-29T08:21:07.287Z,-0.81
2023-01-29T08:23:35.700Z,-0.59
2023-01-29T08:26:04.564Z,-0.58
2023-01-29T08:28:33.307Z,-0.52
2023-01-29T08:31:03.057Z,-0.41
2023-01-29T08:33:38.963Z,-0.56
2023-01-29T08:36:10.548Z,-0.37
2023-01-29T08:38:38.876Z,-0.31
2023-01-29T08:41:08.080Z,-0.13
2023-01-29T08:43:37.044Z,-0.18
2023-01-29T08:46:07.768Z,-0.10
2023-01-29T08:48:36.297Z,0.08
2023-01-29T08:51:04.612Z,0.14
2023-01-29T08:53:33.417Z,-0.09
2023-01-29T08:56:01.919Z,-0.06
2023-01-29T08:58:30.466Z,0.03
2023-01-29T09:01:06.074Z,-0.03
2023-01-29T09:03:35.993Z,0.22
2023-01-29T09:06:04.669Z,0.14
2023-01-29T09:08:33.027Z,0.09
2023-01-29T09:11:01.689Z,0.17
2023-01-29T09:13:30.169Z,0.50
2023-01-29T09:16:00.506Z,0.39
2023-01-29T09:18:29.614Z,0.97
2023-01-29T09:20:59.541Z,1.31
2023-01-29T09:23:28.136Z,1.45
2023-01-29T09:25:56.767Z,1.45
2023-01-29T09:28:26.412Z,1.64
2023-01-29T09:30:54.718Z,1.62
2023-01-29T09:33:24.662Z,1.37
2023-01-29T09:35:55.325Z,1.35
2023-01-29T09:38:28.819Z,1.08
2023-01-29T09:41:06.491Z,0.80
2023-01-29T09:43:44.626Z,0.63
2023-01-29T09:46:21.353Z,0.82
2023-01-29T09:48:59.873Z,0.96
2023-01-29T09:51:36.022Z,1.04
2023-01-29T09:54:19.838Z,1.00
2023-01-29T09:56:51.746Z,0.92
2023-01-29T09:59:28.518Z,0.98
2023-01-29T10:02:07.653Z,1.07
2023-01-29T10:04:54.335Z,1.24
2023-01-29T10:07:50.130Z,1.26
2023-01-29T10:10:30.864Z,0.92
2023-01-29T10:13:07.880Z,0.75
2023-01-29T10:15:50.928Z,1.29
2023-01-29T10:18:41.391Z,1.19
2023-01-29T10:21:25.314Z,1.24
2023-01-29T10:23:58.820Z,1.25
2023-01-29T10:26:30.526Z,1.03
2023-01-29T10:29:03.904Z,1.11
2023-01-29T10:31:36.549Z,1.17
2023-01-29T10:34:14.068Z,0.98
2023-01-29T10:36:46.048Z,0.90
2023-01-29T10:39:19.585Z,1.03
2023-01-29T10:42:05.704Z,1.02
2023-01-29T10:44:46.666Z,0.92
2023-01-29T10:47:32.352Z,0.78
2023-01-29T10:50:16.037Z,0.75
2023-01-29T10:53:03.873Z,0.90
2023-01-29T10:55:45.758Z,0.91
2023-01-29T10:58:28.731Z,0.99
2023-01-29T11:00:57.881Z,0.88
2023-01-29T11:03:29.232Z,0.66
2023-01-29T11:06:05.240Z,0.61
2023-01-29T11:08:39.325Z,0.35
2023-01-29T11:11:10.870Z,0.32
2023-01-29T11:13:48.187Z,0.13
2023-01-29T11:16:17.140Z,0.21
2023-01-29T11:18:55.897Z,0.37
2023-01-29T11:21:26.996Z,0.39
2023-01-29T11:24:12.710Z,0.65
2023-01-29T11:26:44.485Z,0.71
2023-01-29T11:29:34.812Z,0.51
2023-01-29T11:32:07.322Z,0.96
2023-01-29T11:34:35.859Z,1.02
2023-01-29T11:37:08.191Z,0.97
2023-01-29T11:39:45.284Z,1.11
2023-01-29T11:42:20.972Z,0.95
2023-01-29T11:44:51.632Z,1.63
2023-01-29T11:47:24.315Z,1.21
2023-01-29T11:49:54.953Z,1.18
2023-01-29T11:52:29.012Z,1.15
2023-01-29T11:55:01.908Z,1.48
2023-01-29T11:57:34.138Z,1.54
2023-01-29T12:00:08.901Z,1.58
2023-01-29T12:02:39.833Z,1.76
2023-01-29T12:05:16.646Z,1.80
2023-01-29T12:07:49.093Z,1.70
2023-01-29T12:10:36.774Z,1.79
2023-01-29T12:13:06.871Z,1.77
2023-01-29T12:15:41.866Z,1.81
2023-01-29T12:18:17.577Z,1.74
2023-01-29T12:20:49.220Z,1.60
2023-01-29T12:23:28.475Z,1.46
2023-01-29T12:26:03.868Z,1.48
2023-01-29T12:28:45.720Z,1.50
2023-01-29T12:31:27.471Z,1.45
2023-01-29T12:34:04.120Z,1.73
2023-01-29T12:36:38.081Z,1.71
2023-01-29T12:39:06.620Z,1.98
2023-01-29T12:41:42.480Z,1.53
2023-01-29T12:44:19.726Z,1.62
2023-01-29T12:46:54.712Z,1.62
2023-01-29T12:49:29.934Z,2.02
2023-01-29T12:52:02.372Z,1.72
2023-01-29T12:54:36.753Z,2.03
2023-01-29T12:57:11.543Z,2.14
2023-01-29T12:59:44.826Z,2.11
2023-01-29T13:02:25.439Z,2.00
2023-01-29T13:05:01.003Z,1.78
2023-01-29T13:07:33.266Z,1.68
2023-01-29T13:10:08.691Z,1.65
2023-01-29T13:12:39.611Z,1.65
2023-01-29T13:15:19.219Z,1.76
2023-01-29T13:17:54.149Z,1.98
2023-01-29T13:20:27.997Z,2.14
2023-01-29T13:23:02.428Z,2.26
2023-01-29T13:25:30.563Z,2.35
2023-01-29T13:27:59.224Z,2.28
2023-01-29T13:30:29.553Z,2.04
2023-01-29T13:33:09.522Z,1.84
2023-01-29T13:35:41.782Z,1.97
2023-01-29T13:38:26.547Z,2.12
2023-01-29T13:40:57.776Z,2.04
2023-01-29T13:43:26.301Z,1.85
2023-01-29T13:45:56.036Z,1.81
2023-01-29T13:48:27.723Z,1.74
2023-01-29T13:50:59.138Z,1.24
2023-01-29T13:53:30.209Z,1.10
2023-01-29T13:56:30.329Z,1.05
2023-01-29T13:59:02.415Z,1.05
2023-01-29T14:02:03.876Z,1.03
2023-01-29T14:04:35.020Z,0.93
2023-01-29T14:07:04.545Z,0.85
2023-01-29T14:09:54.817Z,0.71
2023-01-29T14:12:42.821Z,0.80
2023-01-29T14:15:33.477Z,1.05
2023-01-29T14:18:07.306Z,0.96
2023-01-29T14:20:45.865Z,1.16
2023-01-29T14:23:31.214Z,1.16
2023-01-29T14:26:02.321Z,1.16
2023-01-29T14:28:33.254Z,1.03
2023-01-29T14:31:02.237Z,1.04
2023-01-29T14:33:36.515Z,0.98
2023-01-29T14:36:10.430Z,0.91
2023-01-29T14:38:41.302Z,0.69
2023-01-29T14:41:26.435Z,0.70
2023-01-29T14:44:54.020Z,0.57
2023-01-29T14:47:55.308Z,0.59
2023-01-29T14:50:50.932Z,0.66
2023-01-29T14:53:25.563Z,0.55
2023-01-29T14:55:59.094Z,0.48
2023-01-29T14:58:35.945Z,0.46
2023-01-29T15:01:08.233Z,0.49
2023-01-29T15:03:45.596Z,0.40
2023-01-29T15:06:19.459Z,0.36
2023-01-29T15:08:54.889Z,0.44
2023-01-29T15:11:37.517Z,0.42
2023-01-29T15:14:27.053Z,0.37
2023-01-29T15:17:08.201Z,0.32
2023-01-29T15:19:40.539Z,0.24
2023-01-29T15:22:14.484Z,0.26
2023-01-29T15:24:44.347Z,0.35
2023-01-29T15:27:17.062Z,0.26
2023-01-29T15:29:52.749Z,0.15
2023-01-29T15:32:30.663Z,0.07
2023-01-29T15:35:01.895Z,0.06
2023-01-29T15:37:34.264Z,-0.03
2023-01-29T15:40:03.449Z,-0.06
2023-01-29T15:42:46.813Z,-0.14
2023-01-29T15:45:27.697Z,-0.23
2023-01-29T15:48:00.660Z,-0.24
2023-01-29T15:50:32.375Z,-0.27
2023-01-29T15:53:04.836Z,-0.33
2023-01-29T15:55:34.224Z,-0.40
2023-01-29T15:58:05.005Z,-0.46
2023-01-29T16:00:33.384Z,-0.50
2023-01-29T16:03:02.096Z,-0.50
2023-01-29T16:05:33.273Z,-0.56
2023-01-29T16:08:02.417Z,-0.54
2023-01-29T16:10:33.586Z,-0.65
2023-01-29T16:13:02.003Z,-0.71
2023-01-29T16:15:33.700Z,-0.81
2023-01-29T16:18:03.703Z,-0.87
2023-01-29T16:20:37.517Z,-0.80
2023-01-29T16:23:07.631Z,-0.83
2023-01-29T16:25:39.836Z,-0.98
2023-01-29T16:28:11.219Z,-1.04
2023-01-29T16:30:41.496Z,-1.00
2023-01-29T16:33:15.732Z,-1.10
2023-01-29T16:35:51.923Z,-1.20
2023-01-29T16:38:30.531Z,-1.20
2023-01-29T16:41:15.441Z,-1.24
2023-01-29T16:43:50.733Z,-1.33
2023-01-29T16:46:26.852Z,-1.28
2023-01-29T16:48:55.408Z,-1.41
2023-01-29T16:51:27.897Z,-1.45
2023-01-29T16:54:09.228Z,-1.49
2023-01-29T16:56:39.474Z,-1.59
2023-01-29T16:59:08.483Z,-1.64
2023-01-29T17:01:37.804Z,-1.68
2023-01-29T17:04:10.966Z,-1.76
2023-01-29T17:06:43.845Z,-1.86
2023-01-29T17:09:22.193Z,-1.92
2023-01-29T17:11:55.958Z,-1.95
2023-01-29T17:14:25.940Z,-2.00
2023-01-29T17:16:56.376Z,-2.07
2023-01-29T17:19:28.481Z,-2.16
2023-01-29T17:21:59.356Z,-2.25
2023-01-29T17:24:27.844Z,-2.30
2023-01-29T17:26:56.464Z,-2.36
2023-01-29T17:29:30.914Z,-2.44
2023-01-29T17:32:01.043Z,-2.49
2023-01-29T17:34:29.538Z,-2.53
2023-01-29T17:36:59.321Z,-2.56
2023-01-29T17:39:28.728Z,-2.61
2023-01-29T17:42:01.363Z,-2.65
2023-01-29T17:44:29.754Z,-2.72
2023-01-29T17:46:58.479Z,-2.77
2023-01-29T17:49:29.364Z,-2.82
2023-01-29T17:52:00.626Z,-2.85
2023-01-29T17:54:28.958Z,-2.88
2023-01-29T17:56:58.265Z,-2.93
2023-01-29T17:59:30.895Z,-2.95
2023-01-29T18:01:59.783Z,-2.98
2023-01-29T18:04:28.044Z,-2.99
2023-01-29T18:06:59.826Z,-3.04
2023-01-29T18:09:28.083Z,-3.11
2023-01-29T18:11:56.846Z,-3.14
2023-01-29T18:14:25.119Z,-3.16
2023-01-29T18:16:53.408Z,-3.17
2023-01-29T18:19:27.649Z,-3.18
2023-01-29T18:21:55.853Z,-3.19
2023-01-29T18:24:26.824Z,-3.18
2023-01-29T18:26:57.074Z,-3.15
2023-01-29T18:29:30.015Z,-3.09
2023-01-29T18:31:58.633Z,-3.09
2023-01-29T18:34:27.850Z,-3.09
2023-01-29T18:36:56.608Z,-3.08
2023-01-29T18:39:27.810Z,-3.07
2023-01-29T18:41:58.669Z,-3.09
2023-01-29T18:44:36.246Z,-3.11
2023-01-29T18:47:05.580Z,-3.21
2023-01-29T18:49:33.608Z,-3.28
2023-01-29T18:52:04.223Z,-3.37
2023-01-29T18:54:33.932Z,-3.38
2023-01-29T18:57:13.072Z,-3.40
2023-01-29T18:59:42.854Z,-3.39
2023-01-29T19:02:15.845Z,-3.39
2023-01-29T19:04:44.301Z,-3.31
2023-01-29T19:07:13.463Z,-3.21
2023-01-29T19:09:46.423Z,-3.23
2023-01-29T19:12:15.371Z,-3.19
2023-01-29T19:14:43.978Z,-3.17
2023-01-29T19:17:12.462Z,-3.18
2023-01-29T19:19:41.071Z,-3.18
2023-01-29T19:22:09.448Z,-3.17
2023-01-29T19:24:39.261Z,-3.17
2023-01-29T19:27:08.984Z,-3.16
2023-01-29T19:29:40.526Z,-3.16
2023-01-29T19:32:09.917Z,-3.18
2023-01-29T19:34:38.091Z,-3.23
2023-01-29T19:37:06.582Z,-3.21
2023-01-29T19:39:35.818Z,-3.13
2023-01-29T19:42:12.895Z,-3.15
2023-01-29T19:44:51.213Z,-3.16
2023-01-29T19:47:22.751Z,-3.15
2023-01-29T19:49:53.714Z,-3.24
2023-01-29T19:52:50.217Z,-3.25
2023-01-29T19:55:22.324Z,-3.26
2023-01-29T19:57:54.513Z,-3.21
2023-01-29T20:00:27.477Z,-3.24
2023-01-29T20:02:56.067Z,-3.31
2023-01-29T20:05:27.158Z,-3.32
2023-01-29T20:07:59.345Z,-3.26
2023-01-29T20:10:30.286Z,-3.29
2023-01-29T20:13:05.817Z,-3.25
2023-01-29T20:15:37.249Z,-3.22
2023-01-29T20:18:11.763Z,-3.23
2023-01-29T20:20:43.566Z,-3.31
2023-01-29T20:23:14.736Z,-3.36
2023-01-29T20:25:46.667Z,-3.28
2023-01-29T20:28:17.833Z,-3.33
2023-01-29T20:30:50.435Z,-3.39
2023-01-29T20:33:21.197Z,-3.40
2023-01-29T20:36:00.100Z,-3.45
2023-01-29T20:38:31.961Z,-3.50
2023-01-29T20:41:04.962Z,-3.55
2023-01-29T20:43:37.626Z,-3.58
2023-01-29T20:46:06.115Z,-3.61
2023-01-29T20:48:35.238Z,-3.63
2023-01-29T20:51:09.358Z,-3.57
2023-01-29T20:53:38.091Z,-3.62
2023-01-29T20:56:11.395Z,-3.64
2023-01-29T20:58:43.759Z,-3.69
2023-01-29T21:01:15.744Z,-3.71
2023-01-29T21:03:49.266Z,-3.69
2023-01-29T21:06:17.428Z,-3.70
2023-01-29T21:08:45.915Z,-3.74
2023-01-29T21:11:18.452Z,-3.76
2023-01-29T21:13:53.161Z,-3.60
2023-01-29T21:16:22.098Z,-3.63
2023-01-29T21:19:06.616Z,-3.58
2023-01-29T21:21:40.309Z,-3.62
2023-01-29T21:24:09.345Z,-3.59
2023-01-29T21:26:48.599Z,-3.59
2023-01-29T21:29:19.834Z,-3.57
2023-01-29T21:31:48.195Z,-3.61
2023-01-29T21:34:16.562Z,-3.59
2023-01-29T21:36:47.987Z,-3.56
2023-01-29T21:39:20.940Z,-3.58
2023-01-29T21:42:08.769Z,-3.53
2023-01-29T21:44:47.005Z,-3.51
2023-01-29T21:47:20.802Z,-3.52
2023-01-29T21:49:52.753Z,-3.40
2023-01-29T21:52:24.813Z,-3.23
2023-01-29T21:54:57.462Z,-3.01
2023-01-29T21:57:26.528Z,-2.87
2023-01-29T21:59:57.812Z,-2.70
2023-01-29T22:02:30.938Z,-2.63
2023-01-29T22:05:17.528Z,-2.46
2023-01-29T22:07:49.547Z,-2.40
2023-01-29T22:10:19.773Z,-2.21
2023-01-29T22:12:50.233Z,-2.18
2023-01-29T22:15:24.437Z,-2.07
2023-01-29T22:17:52.943Z,-1.96
2023-01-29T22:20:29.834Z,-1.91
2023-01-29T22:23:03.479Z,-1.81
2023-01-29T22:25:33.612Z,-1.77
2023-01-29T22:28:04.183Z,-1.77
2023-01-29T22:30:33.801Z,-1.73
2023-01-29T22:33:02.669Z,-1.75
2023-01-29T22:35:36.439Z,-1.70
2023-01-29T22:38:04.777Z,-1.66
2023-01-29T22:40:35.985Z,-1.63
2023-01-29T22:43:12.241Z,-1.59
2023-01-29T22:45:41.940Z,-1.55
2023-01-29T22:48:11.810Z,-1.52
2023-01-29T22:50:41.062Z,-1.52
2023-01-29T22:53:10.392Z,-1.48
2023-01-29T22:55:41.553Z,-1.43
2023-01-29T22:58:10.491Z,-1.34
2023-01-29T23:00:38.647Z,-1.31
2023-01-29T23:03:08.187Z,-1.30
2023-01-29T23:05:36.462Z,-1.28
2023-01-29T23:08:04.633Z,-1.27
2023-01-29T23:10:34.464Z,-1.26
2023-01-29T23:13:02.830Z,-1.13
2023-01-29T23:15:31.468Z,-1.16
2023-01-29T23:18:01.193Z,-1.20
2023-01-29T23:20:30.655Z,-1.19
2023-01-29T23:23:00.387Z,-1.16
2023-01-29T23:25:49.119Z,-1.16
2023-01-29T23:28:16.340Z,-1.14
2023-01-29T23:30:45.245Z,-1.10
2023-01-29T23:33:13.924Z,-1.11
2023-01-29T23:35:46.001Z,-1.11
2023-01-29T23:38:14.250Z,-1.06
2023-01-29T23:40:42.702Z,-1.08
2023-01-29T23:43:12.083Z,-1.00
2023-01-29T23:45:42.529Z,-1.01
2023-01-29T23:48:10.607Z,-0.98
2023-01-29T23:50:39.788Z,-0.94
2023-01-29T23:53:09.811Z,-0.93
2023-01-29T23:55:39.875Z,-0.82
2023-01-29T23:58:08.455Z,-0.84
